Accueil
METAR-TAF:

METAR-TAF

Aéroports :

Aéroport de Kingman

Kingman, Arizona, États-Unis

latitude: 35-15-28N, longitude: 113-55-59W, altitude: 1050 m

Observation

Le bulletin a été fait il y a 10 minutes, à 09:51 UTC
Vent 12 kt de sud/sud-est
Température 24°C
Humidité 22%
Pression 1015 hPa
Visibilité: 16.1 km
Ciel clair

METAR: KIGM 300951Z AUTO 15012KT 10SM CLR 24/01 A2996 RMK AO2 SLP062 T02440011

Heure: 03:01 (10:01 UTC)


TAF: absent

Observations et prévisions météorologiques de plus de 4000 aéroports (messages METAR et TAF).

Les stations disponibles sont représentées par des disques jaunes et rouges sur la carte.

Passer la souris dessus pour voir le nom de la station.

Cliquer dessus pour voir les observations et prévisions météorologiques.

Pour changer de carte: cliquez sur les boutons verts avec une croix noire pour zoomer, sur le bouton vert avec un tiret pour effectuer un zoom arrière, ou sur les flèches vertes pour les cartes adjacentes.


METAR-TAF: